Time;durP1;ratioP1;P1;durP2;ratioP2;P2;SDS_P1;SDS_P2;PMS_P1;PMS_P2;Temp;Humidity;BMP_temperature;BMP_pressure;BME280_temperature;BME280_humidity;BME280_pressure;Samples;Min_cycle;Max_cycle;Signal;HPM_P1;HPM_P2
2022/10/03 00:01:16;;;;;;;7.85;5.72;;;11.10;99.90;;;;;;5031523;28;20040;-71
2022/10/03 00:03:47;;;;;;;11.90;5.80;;;11.20;99.90;;;;;;5037447;28;20032;-72
2022/10/03 00:06:24;;;;;;;7.97;5.50;;;11.20;99.90;;;;;;5032906;28;20065;-70
2022/10/03 00:09:13;;;;;;;9.27;6.25;;;11.20;99.90;;;;;;5028442;28;20438;-72
2022/10/03 00:11:53;;;;;;;8.55;5.68;;;11.10;99.90;;;;;;5050878;28;20021;-71
2022/10/03 00:14:47;;;;;;;7.53;5.80;;;11.10;99.90;;;;;;5051042;28;20856;-72
2022/10/03 00:17:23;;;;;;;9.80;6.53;;;11.10;99.90;;;;;;5050190;28;20037;-71
2022/10/03 00:20:19;;;;;;;7.47;6.25;;;11.00;99.90;;;;;;5037561;28;20103;-73
2022/10/03 00:23:03;;;;;;;8.45;7.30;;;11.00;99.90;;;;;;5039288;28;20033;-72
2022/10/03 00:25:37;;;;;;;9.65;7.40;;;11.00;99.90;;;;;;5040485;28;20030;-72
2022/10/03 00:28:37;;;;;;;12.10;7.55;;;11.10;99.90;;;;;;5031160;28;20029;-72
2022/10/03 00:31:12;;;;;;;11.57;7.22;;;11.00;99.90;;;;;;5042338;28;20504;-71
2022/10/03 00:33:49;;;;;;;7.53;6.63;;;11.00;99.90;;;;;;5043950;28;20018;-72
2022/10/03 00:36:18;;;;;;;10.55;7.95;;;11.00;99.90;;;;;;5043220;28;20112;-72
2022/10/03 00:38:52;;;;;;;10.00;8.23;;;11.00;99.90;;;;;;5038243;28;20056;-72
2022/10/03 00:41:54;;;;;;;8.45;7.53;;;11.00;99.90;;;;;;5035550;28;20050;-70
2022/10/03 00:44:56;;;;;;;11.23;9.10;;;11.00;99.90;;;;;;5030040;28;20107;-71
2022/10/03 00:47:42;;;;;;;10.52;8.75;;;11.00;99.90;;;;;;5043695;28;20025;-70
2022/10/03 00:50:26;;;;;;;10.90;8.82;;;11.00;99.90;;;;;;5050698;28;20037;-71
2022/10/03 00:53:16;;;;;;;9.23;8.25;;;11.10;99.90;;;;;;5037496;28;20497;-73
2022/10/03 00:56:20;;;;;;;10.82;8.68;;;11.10;99.90;;;;;;5045171;28;20663;-72
2022/10/03 00:59:18;;;;;;;8.98;8.02;;;11.10;99.90;;;;;;5040123;28;20112;-72
2022/10/03 01:01:48;;;;;;;12.10;9.25;;;11.10;99.90;;;;;;5044448;28;20058;-72
2022/10/03 01:04:26;;;;;;;11.70;9.18;;;11.10;99.90;;;;;;5043113;28;20548;-72
2022/10/03 01:07:23;;;;;;;12.40;10.82;;;11.10;99.90;;;;;;5042443;28;20023;-72
2022/10/03 01:10:21;;;;;;;12.35;10.35;;;11.10;99.90;;;;;;5044302;28;20025;-72
2022/10/03 01:13:31;;;;;;;12.88;10.07;;;11.10;99.90;;;;;;5043994;28;20029;-71
2022/10/03 01:16:28;;;;;;;11.40;9.68;;;11.10;99.90;;;;;;5042089;28;20032;-71
2022/10/03 01:19:07;;;;;;;15.43;10.68;;;11.10;99.90;;;;;;5036709;28;20071;-72
2022/10/03 01:21:47;;;;;;;12.27;8.80;;;11.10;99.90;;;;;;5033990;28;20022;-72
2022/10/03 01:24:24;;;;;;;12.55;9.00;;;11.10;99.90;;;;;;5042019;28;20031;-71
2022/10/03 01:26:59;;;;;;;11.15;9.70;;;11.10;99.90;;;;;;5041223;28;20045;-71
2022/10/03 01:32:48;;;;;;;12.63;10.23;;;11.10;99.90;;;;;;5044733;28;20114;-69
2022/10/03 01:35:21;;;;;;;13.23;10.52;;;11.00;99.90;;;;;;5053913;28;20033;-71
2022/10/03 01:38:33;;;;;;;12.73;11.32;;;11.00;99.90;;;;;;5054239;28;20025;-70
2022/10/03 01:41:10;;;;;;;13.68;11.57;;;11.00;99.90;;;;;;5026715;28;20067;-70
2022/10/03 01:43:48;;;;;;;14.85;12.27;;;11.00;99.90;;;;;;5052415;28;20047;-71
2022/10/03 01:46:20;;;;;;;13.00;11.60;;;11.00;99.90;;;;;;5036267;28;20061;-71
2022/10/03 01:49:06;;;;;;;13.77;10.82;;;11.00;99.90;;;;;;5032933;28;20032;-71
2022/10/03 01:51:55;;;;;;;14.95;12.38;;;10.90;99.90;;;;;;5033248;28;20482;-72
2022/10/03 01:54:36;;;;;;;14.40;12.45;;;10.90;99.90;;;;;;5053262;28;20053;-69
2022/10/03 01:57:34;;;;;;;19.35;13.35;;;11.00;99.90;;;;;;5054310;28;20033;-71
2022/10/03 02:00:12;;;;;;;18.27;12.68;;;11.00;99.90;;;;;;5053231;28;20116;-70
2022/10/03 02:03:00;;;;;;;18.63;13.35;;;11.00;99.90;;;;;;5037387;28;20025;-71
2022/10/03 02:05:39;;;;;;;18.10;13.68;;;11.10;99.90;;;;;;5032374;28;20036;-71
2022/10/03 02:08:16;;;;;;;17.80;12.52;;;11.10;99.90;;;;;;5034016;28;20029;-71
2022/10/03 02:10:57;;;;;;;15.95;12.77;;;11.10;99.90;;;;;;5032516;28;20038;-71
2022/10/03 02:13:34;;;;;;;15.55;12.93;;;11.10;99.90;;;;;;5046264;28;20033;-71
2022/10/03 02:16:30;;;;;;;16.23;13.23;;;11.10;99.90;;;;;;5053826;28;20021;-71
2022/10/03 02:19:20;;;;;;;16.80;12.73;;;11.10;99.90;;;;;;5046174;28;20098;-73
2022/10/03 02:21:57;;;;;;;18.75;14.20;;;11.10;99.90;;;;;;5036684;28;20028;-72
2022/10/03 02:24:25;;;;;;;21.10;15.57;;;11.10;99.90;;;;;;5032885;28;20087;-69
2022/10/03 02:27:12;;;;;;;21.67;16.13;;;11.10;99.90;;;;;;5033817;28;20033;-71
2022/10/03 02:30:28;;;;;;;19.70;13.52;;;11.20;99.90;;;;;;5044871;28;20039;-72
2022/10/03 02:33:19;;;;;;;18.73;15.00;;;11.10;99.90;;;;;;4999831;28;20033;-70
2022/10/03 02:36:15;;;;;;;20.90;15.43;;;11.10;99.90;;;;;;5034050;28;20033;-72
2022/10/03 02:38:43;;;;;;;19.08;15.52;;;11.10;99.90;;;;;;5043671;28;20757;-71
2022/10/03 02:41:24;;;;;;;17.65;15.18;;;11.10;99.90;;;;;;5033489;28;20047;-71
2022/10/03 02:44:27;;;;;;;17.95;15.23;;;11.20;99.90;;;;;;5032281;28;20120;-71
2022/10/03 02:46:58;;;;;;;18.52;13.98;;;11.10;99.90;;;;;;5041956;28;20029;-72
2022/10/03 02:49:43;;;;;;;16.02;12.88;;;11.10;99.90;;;;;;5036808;28;20048;-71
2022/10/03 02:52:36;;;;;;;17.73;13.48;;;11.10;99.90;;;;;;5048467;28;20033;-72
2022/10/03 02:55:10;;;;;;;16.85;12.98;;;11.10;99.90;;;;;;5043787;28;20037;-71
2022/10/03 02:58:13;;;;;;;17.52;11.93;;;11.10;99.90;;;;;;5045431;28;20096;-71
2022/10/03 03:01:11;;;;;;;14.38;11.55;;;11.10;99.90;;;;;;5030983;28;20140;-72
2022/10/03 03:03:59;;;;;;;18.30;12.43;;;11.10;99.90;;;;;;5030691;28;20063;-71
2022/10/03 03:06:52;;;;;;;17.25;12.85;;;11.10;99.90;;;;;;5031857;28;20431;-70
2022/10/03 03:09:52;;;;;;;19.92;13.18;;;11.10;99.90;;;;;;5035013;28;20037;-71
2022/10/03 03:12:55;;;;;;;16.65;12.65;;;11.10;99.90;;;;;;5034608;28;20045;-71
2022/10/03 03:16:06;;;;;;;21.27;12.90;;;11.10;99.90;;;;;;5031495;28;20025;-70
2022/10/03 03:18:52;;;;;;;18.42;13.43;;;11.10;99.90;;;;;;5016366;28;20043;-71
2022/10/03 03:21:54;;;;;;;19.45;12.77;;;11.10;99.90;;;;;;5048566;28;20369;-72
2022/10/03 03:24:20;;;;;;;15.88;13.10;;;11.10;99.90;;;;;;5041582;28;20040;-69
2022/10/03 03:26:49;;;;;;;19.52;13.23;;;11.10;99.90;;;;;;5031639;28;20034;-71
2022/10/03 03:29:50;;;;;;;16.73;11.50;;;11.10;99.90;;;;;;5031990;28;20072;-71
2022/10/03 03:32:18;;;;;;;15.88;11.60;;;11.10;99.90;;;;;;5049933;28;20167;-72
2022/10/03 03:34:48;;;;;;;18.73;12.90;;;11.10;99.90;;;;;;5035560;28;20040;-72
2022/10/03 03:37:33;;;;;;;18.57;12.50;;;11.10;99.90;;;;;;5031962;28;20037;-74
2022/10/03 03:40:14;;;;;;;15.48;11.63;;;11.00;99.90;;;;;;5050356;28;20029;-72
2022/10/03 03:42:59;;;;;;;14.48;12.00;;;11.00;99.90;;;;;;5048804;28;20761;-71
2022/10/03 03:45:42;;;;;;;16.60;12.70;;;11.00;99.90;;;;;;5030696;28;20065;-71
2022/10/03 03:48:26;;;;;;;17.13;12.45;;;11.00;99.90;;;;;;5051040;28;20036;-73
2022/10/03 03:51:32;;;;;;;13.80;11.05;;;10.90;99.90;;;;;;5048416;28;20497;-71
2022/10/03 03:54:25;;;;;;;16.05;12.32;;;10.90;99.90;;;;;;5031618;28;20036;-72
2022/10/03 03:57:02;;;;;;;16.73;12.25;;;10.90;99.90;;;;;;5032204;28;20030;-71
2022/10/03 03:59:46;;;;;;;14.30;10.98;;;10.80;99.90;;;;;;5042432;28;20367;-71
2022/10/03 04:02:18;;;;;;;19.58;11.20;;;10.90;99.90;;;;;;5032218;28;20112;-73
2022/10/03 04:04:55;;;;;;;20.02;11.63;;;10.80;99.90;;;;;;5039029;28;20025;-71
2022/10/03 04:07:52;;;;;;;21.48;13.52;;;10.80;99.90;;;;;;5051445;28;20377;-70
2022/10/03 04:10:37;;;;;;;13.63;10.40;;;10.70;99.90;;;;;;5051182;28;20445;-71
2022/10/03 04:13:31;;;;;;;12.60;9.57;;;10.70;99.90;;;;;;5041419;28;20049;-71
2022/10/03 04:16:03;;;;;;;15.13;11.82;;;10.70;99.90;;;;;;5034705;28;20021;-70
2022/10/03 04:18:59;;;;;;;14.38;11.35;;;10.70;99.90;;;;;;5050251;28;20033;-71
2022/10/03 04:21:43;;;;;;;16.13;11.18;;;10.60;99.90;;;;;;5038933;28;21329;-72
2022/10/03 04:24:42;;;;;;;16.20;11.60;;;10.60;99.90;;;;;;5042824;28;20033;-72
2022/10/03 04:27:20;;;;;;;17.50;10.43;;;10.60;99.90;;;;;;5031375;28;20025;-72
2022/10/03 04:30:08;;;;;;;18.85;11.25;;;10.60;99.90;;;;;;5030529;28;20085;-72
2022/10/03 04:33:20;;;;;;;16.33;11.82;;;10.60;99.90;;;;;;5041864;28;20021;-71
2022/10/03 04:36:10;;;;;;;18.23;10.85;;;10.60;99.90;;;;;;5006212;28;20070;-71
2022/10/03 04:38:59;;;;;;;21.02;11.60;;;10.60;99.90;;;;;;5008253;28;20041;-72
2022/10/03 04:41:49;;;;;;;12.45;10.55;;;10.60;99.90;;;;;;5043641;28;20041;-70
2022/10/03 04:44:25;;;;;;;17.40;11.65;;;10.50;99.90;;;;;;5050254;28;20045;-71
2022/10/03 04:47:05;;;;;;;14.68;11.55;;;10.50;99.90;;;;;;5051244;28;20458;-72
2022/10/03 04:49:50;;;;;;;12.50;9.90;;;10.60;99.90;;;;;;5049511;28;20080;-71
2022/10/03 04:52:54;;;;;;;14.35;10.98;;;10.60;99.90;;;;;;5041106;28;20032;-72
2022/10/03 04:55:47;;;;;;;15.75;11.15;;;10.60;99.90;;;;;;5030980;28;20127;-72
2022/10/03 04:58:37;;;;;;;14.02;11.45;;;10.60;99.90;;;;;;5031291;28;20030;-73
2022/10/03 05:01:13;;;;;;;21.35;14.07;;;10.60;99.90;;;;;;5049492;28;20393;-72
2022/10/03 05:04:09;;;;;;;17.50;13.73;;;10.60;99.90;;;;;;5049703;28;20052;-72
2022/10/03 05:06:46;;;;;;;22.55;14.57;;;10.70;99.90;;;;;;5048483;28;20040;-72
2022/10/03 05:09:41;;;;;;;18.08;13.13;;;10.60;99.90;;;;;;5033143;28;20120;-72
2022/10/03 05:12:37;;;;;;;19.60;12.73;;;10.70;99.90;;;;;;5026606;28;20038;-71
2022/10/03 05:15:28;;;;;;;22.45;14.25;;;10.70;99.90;;;;;;5030598;28;20346;-71
2022/10/03 05:18:18;;;;;;;21.73;13.95;;;10.70;99.90;;;;;;5030650;28;20118;-71
2022/10/03 05:20:51;;;;;;;19.70;11.73;;;10.70;99.90;;;;;;5036762;28;20116;-72
2022/10/03 05:23:32;;;;;;;18.42;12.68;;;10.80;99.90;;;;;;5048249;28;20033;-73
2022/10/03 05:26:29;;;;;;;23.30;13.20;;;10.80;99.90;;;;;;5040567;28;20108;-72
2022/10/03 05:29:04;;;;;;;17.75;12.80;;;10.70;99.90;;;;;;5041116;28;20033;-72
2022/10/03 05:31:43;;;;;;;15.70;11.75;;;10.80;99.90;;;;;;5041060;28;20029;-72
2022/10/03 05:34:23;;;;;;;20.52;12.80;;;10.70;99.90;;;;;;5050839;28;20029;-72
2022/10/03 05:37:24;;;;;;;19.80;13.00;;;10.70;99.90;;;;;;5036554;28;20160;-72
2022/10/03 05:39:59;;;;;;;16.50;11.52;;;10.70;99.90;;;;;;5044553;28;20064;-71
2022/10/03 05:42:43;;;;;;;14.90;11.77;;;10.70;99.90;;;;;;5042995;28;20033;-70
2022/10/03 05:45:22;;;;;;;20.52;13.27;;;10.70;99.90;;;;;;5012124;28;20049;-70
2022/10/03 05:47:52;;;;;;;20.08;12.65;;;10.70;99.90;;;;;;5013902;28;20060;-70
2022/10/03 05:50:32;;;;;;;;;;;10.70;99.90;;;;;;5009927;28;20486;-71
2022/10/03 05:53:09;;;;;;;21.35;12.82;;;10.70;99.90;;;;;;5012222;28;19909;-72
2022/10/03 05:56:12;;;;;;;19.77;12.05;;;10.70;99.90;;;;;;5013034;28;20108;-72
2022/10/03 05:59:13;;;;;;;16.48;12.05;;;10.70;99.90;;;;;;5010880;28;20494;-71
2022/10/03 06:02:31;;;;;;;21.20;13.63;;;10.70;99.90;;;;;;4983766;28;20042;-71
2022/10/03 06:05:23;;;;;;;27.20;17.60;;;10.70;99.90;;;;;;5008363;28;20471;-74
2022/10/03 06:08:15;;;;;;;27.10;17.10;;;10.80;99.90;;;;;;5013133;28;20041;-72
2022/10/03 06:11:07;;;;;;;34.72;20.75;;;10.80;99.90;;;;;;4991410;28;20127;-73
2022/10/03 06:13:54;;;;;;;29.55;19.77;;;10.80;99.90;;;;;;5012500;28;20471;-73
2022/10/03 06:16:35;;;;;;;37.67;20.90;;;10.80;99.90;;;;;;5004942;28;20065;-73
2022/10/03 06:19:34;;;;;;;28.40;20.15;;;10.80;99.90;;;;;;5012978;28;20076;-73
2022/10/03 06:22:32;;;;;;;30.13;19.30;;;10.80;99.90;;;;;;5002316;28;20037;-72
2022/10/03 06:25:00;;;;;;;36.83;20.85;;;10.80;99.90;;;;;;5011523;28;20026;-72
2022/10/03 06:27:53;;;;;;;31.63;19.52;;;10.80;99.90;;;;;;5011362;28;20018;-71
2022/10/03 06:30:52;;;;;;;26.90;18.05;;;10.90;99.90;;;;;;5013023;28;20413;-72
2022/10/03 06:34:04;;;;;;;28.83;17.27;;;10.90;99.90;;;;;;5011491;28;20030;-71
2022/10/03 06:36:56;;;;;;;27.67;16.77;;;10.90;99.90;;;;;;5011116;28;20021;-72
2022/10/03 06:39:59;;;;;;;27.50;16.90;;;10.90;99.90;;;;;;5011920;28;20030;-71
2022/10/03 06:43:05;;;;;;;26.88;18.25;;;10.90;99.90;;;;;;5011868;28;20485;-70
2022/10/03 06:45:51;;;;;;;32.55;17.92;;;11.00;99.90;;;;;;5022531;28;20060;-74
2022/10/03 06:49:00;;;;;;;29.45;17.85;;;11.00;99.90;;;;;;5023438;28;20109;-72
2022/10/03 06:51:50;;;;;;;30.63;17.30;;;11.00;99.90;;;;;;5024860;28;20034;-69
2022/10/03 06:55:06;;;;;;;28.97;16.00;;;11.10;99.90;;;;;;5013358;28;20390;-72
2022/10/03 06:58:09;;;;;;;28.80;16.23;;;11.00;99.90;;;;;;4952159;28;20038;-71
2022/10/03 07:00:52;;;;;;;21.95;15.63;;;11.00;99.90;;;;;;5013873;28;20042;-71
2022/10/03 07:03:34;;;;;;;25.88;16.30;;;11.00;99.90;;;;;;5021251;28;20022;-72
2022/10/03 07:06:10;;;;;;;22.67;15.70;;;11.10;99.90;;;;;;5013103;28;20045;-71
2022/10/03 07:09:00;;;;;;;23.15;15.43;;;11.10;99.90;;;;;;5012187;28;20029;-70
2022/10/03 07:11:42;;;;;;;26.52;17.55;;;11.10;99.90;;;;;;5012567;28;20038;-72
2022/10/03 07:14:35;;;;;;;25.80;16.00;;;11.10;99.90;;;;;;5015804;28;20038;-71
2022/10/03 07:17:10;;;;;;;20.67;16.02;;;11.20;99.90;;;;;;5024243;28;20025;-69
2022/10/03 07:20:10;;;;;;;27.17;17.83;;;11.20;99.90;;;;;;5025695;28;20071;-70
2022/10/03 07:23:18;;;;;;;25.40;17.42;;;11.20;99.90;;;;;;5020908;28;20109;-69
2022/10/03 07:26:12;;;;;;;21.60;15.75;;;11.20;99.90;;;;;;5025545;28;20036;-69
2022/10/03 07:29:11;;;;;;;23.13;16.08;;;11.30;99.90;;;;;;5021364;28;20101;-71
2022/10/03 07:31:56;;;;;;;27.65;16.65;;;11.30;99.90;;;;;;5021710;28;20033;-71
2022/10/03 07:34:43;;;;;;;23.70;15.88;;;11.30;99.90;;;;;;5021965;28;20506;-72
2022/10/03 07:41:11;;;;;;;18.80;13.85;;;11.40;99.90;;;;;;5014063;28;20442;-70
2022/10/03 07:43:45;;;;;;;24.23;15.00;;;11.40;99.90;;;;;;5030486;28;20033;-69
2022/10/03 07:46:14;;;;;;;19.90;14.80;;;11.50;99.90;;;;;;5040043;28;20037;-73
2022/10/03 07:48:57;;;;;;;25.45;16.00;;;11.60;99.90;;;;;;5037853;28;20477;-71
2022/10/03 07:51:51;;;;;;;17.00;12.45;;;11.60;99.90;;;;;;5039390;28;20029;-70
2022/10/03 07:54:28;;;;;;;22.33;15.82;;;11.70;99.90;;;;;;5041158;28;20060;-71
2022/10/03 07:57:08;;;;;;;31.48;18.00;;;11.80;99.90;;;;;;5013984;28;20030;-72
2022/10/03 07:59:52;;;;;;;27.73;17.00;;;11.90;99.90;;;;;;5041054;28;20029;-71
2022/10/03 08:02:27;;;;;;;22.98;15.25;;;11.90;99.90;;;;;;5044663;28;20064;-72
2022/10/03 08:05:06;;;;;;;25.80;15.25;;;11.90;99.90;;;;;;5040793;28;20509;-71
2022/10/03 08:07:37;;;;;;;25.52;14.35;;;11.90;99.90;;;;;;5037896;28;20032;-70
2022/10/03 08:10:28;;;;;;;26.65;15.27;;;11.90;99.90;;;;;;5031208;28;20124;-71
2022/10/03 08:13:41;;;;;;;28.13;14.48;;;12.00;99.90;;;;;;5031792;28;20366;-70
2022/10/03 08:16:44;;;;;;;31.17;14.70;;;12.00;99.90;;;;;;5034250;28;20378;-70
2022/10/03 08:19:12;;;;;;;22.85;14.00;;;12.10;99.90;;;;;;5050445;28;20470;-71
2022/10/03 08:22:09;;;;;;;25.65;14.27;;;12.20;99.90;;;;;;5049345;28;20024;-70
2022/10/03 08:24:53;;;;;;;23.48;14.43;;;12.20;99.90;;;;;;5049901;28;20405;-70
2022/10/03 08:27:46;;;;;;;20.83;11.75;;;12.20;99.90;;;;;;5035961;28;20060;-71
2022/10/03 08:30:36;;;;;;;22.63;12.57;;;12.20;99.90;;;;;;5037097;28;20038;-69
2022/10/03 08:33:11;;;;;;;;;;;12.20;99.90;;;;;;5032614;28;20025;-70
2022/10/03 08:36:02;;;;;;;17.70;9.60;;;12.30;99.90;;;;;;5031264;28;20267;-70
2022/10/03 08:38:55;;;;;;;19.55;10.13;;;12.40;99.90;;;;;;5046320;28;20029;-70
2022/10/03 08:41:45;;;;;;;21.60;10.27;;;12.40;99.90;;;;;;5031563;28;20033;-68
2022/10/03 08:44:39;;;;;;;13.98;8.52;;;12.40;99.90;;;;;;5040148;28;20053;-71
2022/10/03 08:47:14;;;;;;;16.75;8.75;;;12.50;99.90;;;;;;5051387;28;20051;-69
2022/10/03 08:50:16;;;;;;;18.65;9.10;;;12.50;99.90;;;;;;5038351;28;20033;-71
2022/10/03 08:53:23;;;;;;;22.90;8.65;;;12.60;99.90;;;;;;5033181;28;20029;-70
2022/10/03 08:56:18;;;;;;;13.65;7.40;;;12.60;99.90;;;;;;5010150;28;20077;-70
2022/10/03 08:59:14;;;;;;;13.70;7.10;;;12.50;99.90;;;;;;5030549;28;20106;-70
2022/10/03 09:01:58;;;;;;;11.32;6.38;;;12.50;99.90;;;;;;5042652;28;20029;-70
2022/10/03 09:04:53;;;;;;;11.77;6.85;;;12.40;99.90;;;;;;5050528;28;20063;-69
2022/10/03 09:07:30;;;;;;;19.38;7.10;;;12.40;99.90;;;;;;5046784;28;20028;-70
2022/10/03 09:10:18;;;;;;;16.25;7.78;;;12.30;99.90;;;;;;5048864;28;20033;-70
2022/10/03 09:13:02;;;;;;;12.43;7.88;;;12.30;99.90;;;;;;5050889;28;20103;-71
2022/10/03 09:15:58;;;;;;;13.90;8.10;;;12.30;99.90;;;;;;5053282;28;20079;-70
2022/10/03 09:18:49;;;;;;;14.55;8.15;;;12.30;99.90;;;;;;5034225;28;20037;-69
2022/10/03 09:21:37;;;;;;;19.48;9.05;;;12.40;99.90;;;;;;5035473;28;20082;-69
2022/10/03 09:24:09;;;;;;;19.63;10.10;;;12.60;99.90;;;;;;5051054;28;20025;-70
2022/10/03 09:26:40;;;;;;;14.85;8.05;;;12.80;99.90;;;;;;5047587;28;20033;-70
2022/10/03 09:29:40;;;;;;;16.33;8.32;;;12.90;99.90;;;;;;5046804;28;20033;-71
2022/10/03 09:32:11;;;;;;;15.73;7.20;;;13.00;99.90;;;;;;5038626;28;20022;-70
2022/10/03 09:34:45;;;;;;;13.48;7.25;;;13.20;99.90;;;;;;5044684;28;20036;-70
2022/10/03 09:37:30;;;;;;;12.52;7.05;;;13.40;99.90;;;;;;5054906;28;20021;-71
2022/10/03 09:39:56;;;;;;;13.00;6.72;;;13.50;99.90;;;;;;5054069;28;20033;-70
2022/10/03 09:42:45;;;;;;;15.02;7.85;;;13.60;99.90;;;;;;5045434;28;20040;-69
2022/10/03 09:45:35;;;;;;;13.55;7.15;;;13.90;99.90;;;;;;5051773;28;20116;-71
2022/10/03 09:48:32;;;;;;;10.38;6.00;;;14.00;99.90;;;;;;5054820;28;20126;-71
2022/10/03 09:51:05;;;;;;;18.00;6.95;;;14.10;99.90;;;;;;5054688;28;20033;-74
2022/10/03 09:53:31;;;;;;;13.52;7.65;;;14.20;99.90;;;;;;5051766;28;20067;-75
2022/10/03 09:56:18;;;;;;;13.13;5.47;;;14.30;99.90;;;;;;5040959;28;20052;-75
2022/10/03 09:59:05;;;;;;;12.70;5.90;;;14.30;99.90;;;;;;5034630;28;20482;-77
2022/10/03 10:01:39;;;;;;;9.60;4.80;;;14.30;99.90;;;;;;5043831;28;20136;-72
2022/10/03 10:04:24;;;;;;;6.90;4.43;;;14.30;99.90;;;;;;5027955;28;20117;-72
2022/10/03 10:07:27;;;;;;;11.07;5.07;;;14.50;99.90;;;;;;5024070;28;20028;-73
2022/10/03 10:10:17;;;;;;;15.25;5.80;;;14.70;99.90;;;;;;5015064;28;20030;-73
2022/10/03 10:13:01;;;;;;;9.13;4.30;;;15.10;99.90;;;;;;5036614;28;20479;-72
2022/10/03 10:15:45;;;;;;;10.32;4.57;;;15.20;99.90;;;;;;5040267;28;21182;-71
2022/10/03 10:18:28;;;;;;;12.27;4.78;;;15.20;99.90;;;;;;5035761;28;20037;-71
2022/10/03 10:20:57;;;;;;;15.77;6.10;;;15.10;99.90;;;;;;5033575;28;20029;-73
2022/10/03 10:23:37;;;;;;;10.98;5.07;;;15.00;99.90;;;;;;5042700;28;20116;-71
2022/10/03 10:26:30;;;;;;;;;;;15.00;99.90;;;;;;5036497;28;20056;-70
2022/10/03 10:29:24;;;;;;;10.35;4.88;;;15.00;99.90;;;;;;5041658;28;19916;-70
2022/10/03 10:32:08;;;;;;;12.23;5.00;;;15.00;99.90;;;;;;5024982;28;20486;-70
2022/10/03 10:34:55;;;;;;;9.55;4.60;;;15.10;99.90;;;;;;5049005;28;20402;-71
2022/10/03 10:37:40;;;;;;;10.00;5.00;;;15.30;99.90;;;;;;5039217;28;20025;-69
2022/10/03 10:40:25;;;;;;;13.27;5.05;;;15.60;99.90;;;;;;5038152;28;20109;-73
2022/10/03 10:43:28;;;;;;;8.65;4.18;;;15.80;99.90;;;;;;5034169;28;20036;-70
2022/10/03 10:46:24;;;;;;;9.40;4.35;;;16.00;99.90;;;;;;5032958;28;20022;-71
2022/10/03 10:49:11;;;;;;;13.13;4.88;;;16.10;99.90;;;;;;5036278;28;20029;-70
2022/10/03 10:51:58;;;;;;;14.10;5.82;;;16.00;99.90;;;;;;5046061;28;20033;-71
2022/10/03 10:54:50;;;;;;;12.70;5.45;;;16.00;99.90;;;;;;5032392;28;20021;-71
2022/10/03 10:57:55;;;;;;;8.15;4.15;;;15.90;99.90;;;;;;5040569;28;20033;-72
2022/10/03 11:01:00;;;;;;;13.35;4.38;;;15.90;99.90;;;;;;5047108;28;20040;-70
2022/10/03 11:04:04;;;;;;;12.88;4.07;;;15.90;99.90;;;;;;5042639;28;20035;-71
2022/10/03 11:06:41;;;;;;;9.77;4.13;;;15.80;99.90;;;;;;4989070;28;20049;-73
2022/10/03 11:09:34;;;;;;;12.40;5.97;;;15.80;99.90;;;;;;5039410;28;20075;-70
2022/10/03 11:12:21;;;;;;;13.25;3.92;;;15.80;99.90;;;;;;5044888;28;20029;-72
2022/10/03 11:15:09;;;;;;;7.75;3.80;;;15.80;99.90;;;;;;5048338;28;20465;-73
2022/10/03 11:17:49;;;;;;;13.98;4.40;;;15.70;99.90;;;;;;5052286;28;20040;-76
2022/10/03 11:20:36;;;;;;;9.95;3.83;;;15.70;99.90;;;;;;5036908;28;20037;-77
2022/10/03 11:23:07;;;;;;;13.70;5.10;;;15.60;99.90;;;;;;5044652;28;20029;-86
2022/10/03 11:26:00;;;;;;;13.07;5.28;;;15.60;99.90;;;;;;5041995;28;20083;-78
2022/10/03 11:28:47;;;;;;;12.52;5.45;;;15.60;99.90;;;;;;5042379;28;20056;-79
2022/10/03 11:31:31;;;;;;;11.15;5.25;;;15.60;99.90;;;;;;5041677;28;20084;-82
2022/10/03 11:34:35;;;;;;;11.50;5.15;;;15.70;99.90;;;;;;5047986;28;20033;-73
2022/10/03 11:37:12;;;;;;;14.27;4.95;;;15.70;99.90;;;;;;5035640;28;20517;-69
2022/10/03 11:40:02;;;;;;;14.32;5.35;;;15.80;99.90;;;;;;5041012;28;20029;-69
2022/10/03 11:42:38;;;;;;;10.77;4.40;;;15.90;99.90;;;;;;5034418;28;20455;-71
2022/10/03 11:45:41;;;;;;;11.75;4.82;;;16.10;99.90;;;;;;5032873;28;20063;-69
2022/10/03 11:48:25;;;;;;;15.98;5.75;;;16.20;99.90;;;;;;5038539;28;20044;-71
2022/10/03 11:50:56;;;;;;;7.95;4.40;;;16.00;99.90;;;;;;5042407;28;20026;-71
2022/10/03 11:53:40;;;;;;;7.40;3.85;;;15.90;99.90;;;;;;5037730;28;20120;-70
2022/10/03 11:56:44;;;;;;;12.10;4.65;;;15.70;99.90;;;;;;5041498;28;20117;-77
2022/10/03 11:59:31;;;;;;;10.50;3.58;;;15.60;99.90;;;;;;5031579;28;20116;-74
2022/10/03 12:02:14;;;;;;;12.20;3.45;;;15.50;99.90;;;;;;5033896;28;20402;-74
2022/10/03 12:04:56;;;;;;;6.10;2.97;;;15.50;99.90;;;;;;5041489;28;20026;-79
2022/10/03 12:11:05;;;;;;;7.82;3.97;;;16.50;99.90;;;;;;5034293;28;20040;-75
2022/10/03 12:13:41;;;;;;;8.60;3.40;;;16.90;99.90;;;;;;5050043;28;20373;-76
2022/10/03 12:16:35;;;;;;;7.43;3.42;;;16.90;99.90;;;;;;5040778;28;20454;-74
2022/10/03 12:19:23;;;;;;;6.65;2.85;;;16.90;99.90;;;;;;5039548;28;20064;-75
2022/10/03 12:22:34;;;;;;;10.60;3.30;;;17.00;99.90;;;;;;5050654;28;20029;-74
2022/10/03 12:25:12;;;;;;;;;;;17.20;99.90;;;;;;5024652;28;20049;-75
2022/10/03 12:28:00;;;;;;;6.90;2.65;;;17.30;99.90;;;;;;5049776;28;19915;-73
2022/10/03 12:30:36;;;;;;;8.18;2.58;;;17.20;99.90;;;;;;5034044;28;20047;-77
2022/10/03 12:33:21;;;;;;;6.40;2.42;;;17.10;99.90;;;;;;5042491;28;20494;-76
2022/10/03 12:36:05;;;;;;;6.65;2.47;;;16.80;99.90;;;;;;5036246;28;20105;-76
2022/10/03 12:38:43;;;;;;;4.45;2.22;;;16.50;99.90;;;;;;5034711;28;20025;-76
2022/10/03 12:41:24;;;;;;;8.73;2.60;;;16.40;99.90;;;;;;5043690;28;20070;-75
2022/10/03 12:43:56;;;;;;;6.28;2.47;;;16.30;99.90;;;;;;5036640;28;20060;-76
2022/10/03 12:46:44;;;;;;;8.07;3.30;;;16.60;99.90;;;;;;5044755;28;20133;-78
2022/10/03 12:49:52;;;;;;;8.70;2.20;;;16.90;99.90;;;;;;5042237;28;20026;-76
2022/10/03 12:52:29;;;;;;;8.50;3.28;;;17.20;99.90;;;;;;5049269;28;20466;-75
2022/10/03 12:55:22;;;;;;;8.43;2.70;;;17.80;99.90;;;;;;5038966;28;20053;-76
2022/10/03 12:57:57;;;;;;;7.63;2.70;;;17.90;99.90;;;;;;5042699;28;20089;-74
2022/10/03 13:00:27;;;;;;;6.93;2.40;;;17.90;99.90;;;;;;5061663;28;20029;-75
2022/10/03 13:03:00;;;;;;;5.80;2.45;;;18.10;99.70;;;;;;5058189;28;20028;-76
2022/10/03 13:05:52;;;;;;;10.05;3.05;;;18.30;99.80;;;;;;5056722;28;20036;-76
2022/10/03 13:08:45;;;;;;;11.65;3.63;;;18.70;99.60;;;;;;5052048;28;20024;-76
2022/10/03 13:11:22;;;;;;;8.07;2.92;;;18.50;99.10;;;;;;5057910;28;20029;-77
2022/10/03 13:14:18;;;;;;;7.93;3.45;;;18.40;99.60;;;;;;5045179;28;20105;-77
2022/10/03 13:17:03;;;;;;;6.78;2.55;;;18.30;99.90;;;;;;5040698;28;20037;-76
2022/10/03 13:19:40;;;;;;;8.00;2.83;;;18.40;98.90;;;;;;5051119;28;20123;-78
2022/10/03 13:22:08;;;;;;;7.03;3.05;;;18.10;99.30;;;;;;5059667;28;20080;-76
2022/10/03 13:24:40;;;;;;;12.02;2.97;;;17.90;99.90;;;;;;5057536;28;20040;-77
2022/10/03 13:27:43;;;;;;;7.68;3.08;;;17.40;99.90;;;;;;5060353;28;20033;-77
2022/10/03 13:30:31;;;;;;;8.35;2.90;;;16.90;99.90;;;;;;5056678;28;20390;-76
2022/10/03 13:33:24;;;;;;;8.27;3.22;;;16.60;99.90;;;;;;5049557;28;20030;-76
2022/10/03 13:35:57;;;;;;;6.80;2.60;;;16.60;99.90;;;;;;5035959;28;20104;-78
2022/10/03 13:38:45;;;;;;;6.85;3.08;;;16.50;99.90;;;;;;5035604;28;20021;-75
2022/10/03 13:41:30;;;;;;;15.05;3.00;;;16.40;99.90;;;;;;5053292;28;20052;-77
2022/10/03 13:44:22;;;;;;;7.32;2.33;;;16.50;99.90;;;;;;5048877;28;20084;-77
2022/10/03 13:47:06;;;;;;;7.90;2.78;;;16.60;99.90;;;;;;5047420;28;20087;-77
2022/10/03 13:49:39;;;;;;;7.20;2.38;;;17.10;99.90;;;;;;5043883;28;20082;-76
2022/10/03 13:52:14;;;;;;;6.07;2.40;;;17.30;99.90;;;;;;5044238;28;20052;-77
2022/10/03 13:55:04;;;;;;;8.82;2.72;;;17.40;99.90;;;;;;5053885;28;20074;-76
2022/10/03 13:57:46;;;;;;;8.20;2.72;;;17.40;99.90;;;;;;5047889;28;20335;-77
2022/10/03 14:00:15;;;;;;;6.75;2.78;;;17.70;99.30;;;;;;5033454;28;20494;-76
2022/10/03 14:02:58;;;;;;;7.63;2.83;;;17.80;99.00;;;;;;5043839;28;20350;-76
2022/10/03 14:05:42;;;;;;;6.68;3.00;;;17.80;99.50;;;;;;5042934;28;20036;-77
2022/10/03 14:08:13;;;;;;;9.95;3.05;;;17.70;99.00;;;;;;5041720;28;20112;-77
2022/10/03 14:10:58;;;;;;;8.45;2.90;;;17.60;98.80;;;;;;5033535;28;20488;-78
2022/10/03 14:14:01;;;;;;;8.98;2.45;;;17.60;99.80;;;;;;5048446;28;20043;-73
2022/10/03 14:16:31;;;;;;;6.25;1.95;;;17.70;98.10;;;;;;5039138;28;20033;-73
2022/10/03 14:19:02;;;;;;;5.57;2.13;;;17.80;98.40;;;;;;5033957;28;20033;-74
2022/10/03 14:21:49;;;;;;;11.10;3.20;;;18.00;98.30;;;;;;5046228;28;20466;-72
2022/10/03 14:24:27;;;;;;;4.60;1.77;;;18.30;97.10;;;;;;5044777;28;20538;-73